首页
METAR-TAF:

METAR-TAF

机场 :

苏丹依斯迈布特拉机场

哥打巴鲁, 马来西亚

纬度: 06-10N, 经度: 102-17E, 海拔: 5米

当前天气观测

该预报发布于34分钟前的14:00 UTC
风速3节,风向多变
温度 25°C
湿度 94%
气压 1011 hPa
能见度10公里或以上
少量云层高于2000英尺

METAR: WMKC 171400Z VRB03KT 9999 FEW020 25/24 Q1011

时间: 22:34 (14:34 UTC)

预报

该预报发布于3小时和34分钟前的11:00 UTC
预报有效从17日的 12点(UTC)到 18日的 12点(UTC)
风速4节,风向南转西南
能见度10公里或以上
少量云层高于2000英尺

TAF: WMKC 171100Z 1712/1812 21004KT 9999 FEW020

超过4000个机场的气象观测和天气预报(METAR&TAF报告)。

可查询的气象台以黄色和红色小点在地图上表示。

将鼠标移到小点上方,可查看气象台名称。

然后点击查看天气观测和预报。

如需切换地图:点击带黑十字的绿色按钮放大地图;点击带横线的绿色按钮缩小地图;或者点击绿色箭头查看邻近地区的地图。


METAR-TAF: